sensor_id;sensor_type;location;lat;lon;timestamp;temperature;humidity
7970;DHT22;4030;52.362;9.206;2022-12-07T00:01:13;6.10;91.50
7970;DHT22;4030;52.362;9.206;2022-12-07T00:03:41;6.10;91.90
7970;DHT22;4030;52.362;9.206;2022-12-07T00:06:10;6.10;91.50
7970;DHT22;4030;52.362;9.206;2022-12-07T00:08:37;6.10;91.80
7970;DHT22;4030;52.362;9.206;2022-12-07T00:11:24;5.90;91.80
7970;DHT22;4030;52.362;9.206;2022-12-07T00:13:55;6.00;91.50
7970;DHT22;4030;52.362;9.206;2022-12-07T00:16:28;6.20;92.00
7970;DHT22;4030;52.362;9.206;2022-12-07T00:21:26;6.20;91.80
7970;DHT22;4030;52.362;9.206;2022-12-07T00:23:55;6.10;92.00
7970;DHT22;4030;52.362;9.206;2022-12-07T00:26:25;6.10;92.00
7970;DHT22;4030;52.362;9.206;2022-12-07T00:28:56;6.20;92.00
7970;DHT22;4030;52.362;9.206;2022-12-07T00:31:24;6.10;91.60
7970;DHT22;4030;52.362;9.206;2022-12-07T00:33:52;6.40;92.10
7970;DHT22;4030;52.362;9.206;2022-12-07T00:36:21;6.30;92.10
7970;DHT22;4030;52.362;9.206;2022-12-07T00:38:48;6.00;92.00
7970;DHT22;4030;52.362;9.206;2022-12-07T00:41:16;6.40;92.20
7970;DHT22;4030;52.362;9.206;2022-12-07T00:43:44;6.10;91.70
7970;DHT22;4030;52.362;9.206;2022-12-07T00:46:12;6.30;92.20
7970;DHT22;4030;52.362;9.206;2022-12-07T00:48:39;6.50;92.30
7970;DHT22;4030;52.362;9.206;2022-12-07T00:51:05;6.00;92.10
7970;DHT22;4030;52.362;9.206;2022-12-07T00:53:34;6.20;92.00
7970;DHT22;4030;52.362;9.206;2022-12-07T00:56:05;6.10;92.10
7970;DHT22;4030;52.362;9.206;2022-12-07T00:58:35;6.30;92.20
7970;DHT22;4030;52.362;9.206;2022-12-07T01:01:02;6.10;92.10
7970;DHT22;4030;52.362;9.206;2022-12-07T01:03:28;5.90;91.90
7970;DHT22;4030;52.362;9.206;2022-12-07T01:05:55;6.00;91.80
7970;DHT22;4030;52.362;9.206;2022-12-07T01:08:22;5.90;92.00
7970;DHT22;4030;52.362;9.206;2022-12-07T01:10:48;6.00;92.10
7970;DHT22;4030;52.362;9.206;2022-12-07T01:13:15;6.10;92.00
7970;DHT22;4030;52.362;9.206;2022-12-07T01:15:42;6.40;92.30
7970;DHT22;4030;52.362;9.206;2022-12-07T01:18:09;6.40;92.20
7970;DHT22;4030;52.362;9.206;2022-12-07T01:20:35;6.40;92.20
7970;DHT22;4030;52.362;9.206;2022-12-07T01:23:01;5.90;92.00
7970;DHT22;4030;52.362;9.206;2022-12-07T01:25:27;6.40;92.20
7970;DHT22;4030;52.362;9.206;2022-12-07T01:30:18;6.10;91.80
7970;DHT22;4030;52.362;9.206;2022-12-07T01:37:37;6.20;91.80
7970;DHT22;4030;52.362;9.206;2022-12-07T01:40:05;6.40;92.30
7970;DHT22;4030;52.362;9.206;2022-12-07T01:42:33;6.40;92.30
7970;DHT22;4030;52.362;9.206;2022-12-07T01:47:54;6.50;92.00
7970;DHT22;4030;52.362;9.206;2022-12-07T01:50:21;6.30;91.90
7970;DHT22;4030;52.362;9.206;2022-12-07T01:52:52;6.20;91.90
7970;DHT22;4030;52.362;9.206;2022-12-07T01:57:48;6.10;92.00
7970;DHT22;4030;52.362;9.206;2022-12-07T02:00:16;6.30;91.90
7970;DHT22;4030;52.362;9.206;2022-12-07T02:03:04;6.00;92.10
7970;DHT22;4030;52.362;9.206;2022-12-07T02:05:33;6.00;92.10
7970;DHT22;4030;52.362;9.206;2022-12-07T02:10:28;6.60;92.40
7970;DHT22;4030;52.362;9.206;2022-12-07T02:13:16;6.40;92.30
7970;DHT22;4030;52.362;9.206;2022-12-07T02:30:13;6.40;92.40
7970;DHT22;4030;52.362;9.206;2022-12-07T02:32:56;6.00;92.10
7970;DHT22;4030;52.362;9.206;2022-12-07T02:35:53;6.10;92.30
7970;DHT22;4030;52.362;9.206;2022-12-07T02:38:55;6.20;91.90
7970;DHT22;4030;52.362;9.206;2022-12-07T02:44:29;6.20;92.00
7970;DHT22;4030;52.362;9.206;2022-12-07T02:47:01;6.10;92.30
7970;DHT22;4030;52.362;9.206;2022-12-07T02:49:30;6.40;92.50
7970;DHT22;4030;52.362;9.206;2022-12-07T02:51:56;5.90;92.30
7970;DHT22;4030;52.362;9.206;2022-12-07T02:54:22;5.90;92.30
7970;DHT22;4030;52.362;9.206;2022-12-07T03:02:49;6.00;91.90
7970;DHT22;4030;52.362;9.206;2022-12-07T03:08:46;6.20;92.40
7970;DHT22;4030;52.362;9.206;2022-12-07T03:11:42;6.10;92.40
7970;DHT22;4030;52.362;9.206;2022-12-07T03:17:09;5.90;91.90
7970;DHT22;4030;52.362;9.206;2022-12-07T03:19:39;5.80;92.20
7970;DHT22;4030;52.362;9.206;2022-12-07T03:22:10;5.90;91.80
7970;DHT22;4030;52.362;9.206;2022-12-07T03:25:20;5.60;91.80
7970;DHT22;4030;52.362;9.206;2022-12-07T03:27:48;5.90;91.80
7970;DHT22;4030;52.362;9.206;2022-12-07T03:30:20;6.10;92.20
7970;DHT22;4030;52.362;9.206;2022-12-07T03:33:00;6.20;92.30
7970;DHT22;4030;52.362;9.206;2022-12-07T03:35:37;5.90;92.30
7970;DHT22;4030;52.362;9.206;2022-12-07T03:41:01;5.90;91.80
7970;DHT22;4030;52.362;9.206;2022-12-07T03:43:31;5.90;92.20
7970;DHT22;4030;52.362;9.206;2022-12-07T03:49:20;5.70;92.10
7970;DHT22;4030;52.362;9.206;2022-12-07T03:54:41;6.20;92.30
7970;DHT22;4030;52.362;9.206;2022-12-07T03:57:10;5.80;92.20
7970;DHT22;4030;52.362;9.206;2022-12-07T03:59:38;5.60;92.00
7970;DHT22;4030;52.362;9.206;2022-12-07T04:02:06;5.90;91.90
7970;DHT22;4030;52.362;9.206;2022-12-07T04:04:33;5.80;91.70
7970;DHT22;4030;52.362;9.206;2022-12-07T04:06:59;5.80;92.10
7970;DHT22;4030;52.362;9.206;2022-12-07T04:09:26;6.10;92.20
7970;DHT22;4030;52.362;9.206;2022-12-07T04:14:17;6.10;92.20
7970;DHT22;4030;52.362;9.206;2022-12-07T04:16:44;5.50;91.90
7970;DHT22;4030;52.362;9.206;2022-12-07T04:19:30;5.80;91.60
7970;DHT22;4030;52.362;9.206;2022-12-07T04:21:59;6.10;92.10
7970;DHT22;4030;52.362;9.206;2022-12-07T04:24:26;5.60;91.90
7970;DHT22;4030;52.362;9.206;2022-12-07T04:26:52;5.80;92.00
7970;DHT22;4030;52.362;9.206;2022-12-07T04:29:19;5.80;92.00
7970;DHT22;4030;52.362;9.206;2022-12-07T04:34:12;5.60;91.80
7970;DHT22;4030;52.362;9.206;2022-12-07T04:39:06;5.60;91.90
7970;DHT22;4030;52.362;9.206;2022-12-07T04:41:33;6.00;92.00
7970;DHT22;4030;52.362;9.206;2022-12-07T04:44:00;5.70;91.90
7970;DHT22;4030;52.362;9.206;2022-12-07T04:46:30;5.50;91.70
7970;DHT22;4030;52.362;9.206;2022-12-07T04:48:57;5.80;91.90
7970;DHT22;4030;52.362;9.206;2022-12-07T04:51:26;5.60;91.80
7970;DHT22;4030;52.362;9.206;2022-12-07T04:53:54;6.00;92.00
7970;DHT22;4030;52.362;9.206;2022-12-07T04:56:21;5.80;91.80
7970;DHT22;4030;52.362;9.206;2022-12-07T05:01:15;5.70;91.40
7970;DHT22;4030;52.362;9.206;2022-12-07T05:08:35;6.00;91.90
7970;DHT22;4030;52.362;9.206;2022-12-07T05:11:02;6.00;91.90
7970;DHT22;4030;52.362;9.206;2022-12-07T05:23:12;3.90;90.60
7970;DHT22;4030;52.362;9.206;2022-12-07T05:30:31;5.50;91.40
7970;DHT22;4030;52.362;9.206;2022-12-07T05:32:57;5.50;91.60
7970;DHT22;4030;52.362;9.206;2022-12-07T05:35:23;5.70;91.40
7970;DHT22;4030;52.362;9.206;2022-12-07T05:40:16;5.90;91.40
7970;DHT22;4030;52.362;9.206;2022-12-07T05:42:42;6.00;91.80
7970;DHT22;4030;52.362;9.206;2022-12-07T05:45:09;5.40;91.60
7970;DHT22;4030;52.362;9.206;2022-12-07T05:47:35;5.70;91.30
7970;DHT22;4030;52.362;9.206;2022-12-07T05:52:27;5.50;91.50
7970;DHT22;4030;52.362;9.206;2022-12-07T06:02:14;5.70;91.20
7970;DHT22;4030;52.362;9.206;2022-12-07T06:04:42;5.80;91.70
7970;DHT22;4030;52.362;9.206;2022-12-07T06:07:11;5.70;91.20
7970;DHT22;4030;52.362;9.206;2022-12-07T06:09:39;5.40;91.50
7970;DHT22;4030;52.362;9.206;2022-12-07T06:12:05;5.90;91.80
7970;DHT22;4030;52.362;9.206;2022-12-07T06:19:42;5.90;91.40
7970;DHT22;4030;52.362;9.206;2022-12-07T06:22:09;6.00;91.60
7970;DHT22;4030;52.362;9.206;2022-12-07T06:24:36;6.00;91.70
7970;DHT22;4030;52.362;9.206;2022-12-07T06:27:03;5.50;91.50
7970;DHT22;4030;52.362;9.206;2022-12-07T06:29:29;6.10;91.80
7970;DHT22;4030;52.362;9.206;2022-12-07T06:31:55;5.50;91.50
7970;DHT22;4030;52.362;9.206;2022-12-07T06:34:22;5.60;91.60
7970;DHT22;4030;52.362;9.206;2022-12-07T06:36:50;5.70;91.10
7970;DHT22;4030;52.362;9.206;2022-12-07T06:39:25;5.70;91.50
7970;DHT22;4030;52.362;9.206;2022-12-07T06:41:52;6.00;91.70
7970;DHT22;4030;52.362;9.206;2022-12-07T06:44:19;6.00;91.70
7970;DHT22;4030;52.362;9.206;2022-12-07T06:46:46;5.90;91.70
7970;DHT22;4030;52.362;9.206;2022-12-07T06:51:38;5.90;91.60
7970;DHT22;4030;52.362;9.206;2022-12-07T06:54:08;5.80;91.70
7970;DHT22;4030;52.362;9.206;2022-12-07T06:56:34;5.80;91.60
7970;DHT22;4030;52.362;9.206;2022-12-07T06:59:00;5.80;91.60
7970;DHT22;4030;52.362;9.206;2022-12-07T07:01:26;5.60;91.50
7970;DHT22;4030;52.362;9.206;2022-12-07T07:03:51;5.80;91.60
7970;DHT22;4030;52.362;9.206;2022-12-07T07:06:17;5.70;91.10
7970;DHT22;4030;52.362;9.206;2022-12-07T07:11:10;5.70;91.10
7970;DHT22;4030;52.362;9.206;2022-12-07T07:13:36;5.50;91.00
7970;DHT22;4030;52.362;9.206;2022-12-07T07:18:29;5.80;91.60
7970;DHT22;4030;52.362;9.206;2022-12-07T07:20:55;5.30;91.50
7970;DHT22;4030;52.362;9.206;2022-12-07T07:23:21;5.70;91.50
7970;DHT22;4030;52.362;9.206;2022-12-07T07:25:47;5.70;91.30
7970;DHT22;4030;52.362;9.206;2022-12-07T07:28:13;5.80;91.50
7970;DHT22;4030;52.362;9.206;2022-12-07T07:35:33;5.70;91.00
7970;DHT22;4030;52.362;9.206;2022-12-07T07:38:00;5.80;91.50
7970;DHT22;4030;52.362;9.206;2022-12-07T07:42:53;5.60;91.00
7970;DHT22;4030;52.362;9.206;2022-12-07T07:45:20;5.50;91.40
7970;DHT22;4030;52.362;9.206;2022-12-07T07:47:47;5.70;91.00
7970;DHT22;4030;52.362;9.206;2022-12-07T07:52:40;6.10;91.60
7970;DHT22;4030;52.362;9.206;2022-12-07T07:55:06;5.80;91.50
7970;DHT22;4030;52.362;9.206;2022-12-07T07:57:37;5.90;91.10
7970;DHT22;4030;52.362;9.206;2022-12-07T08:00:05;5.80;91.50
7970;DHT22;4030;52.362;9.206;2022-12-07T08:02:33;5.80;91.40
7970;DHT22;4030;52.362;9.206;2022-12-07T08:07:27;5.80;91.00
7970;DHT22;4030;52.362;9.206;2022-12-07T08:09:53;6.10;91.30
7970;DHT22;4030;52.362;9.206;2022-12-07T08:19:38;5.80;91.30
7970;DHT22;4030;52.362;9.206;2022-12-07T08:22:03;5.90;91.20
7970;DHT22;4030;52.362;9.206;2022-12-07T08:39:06;6.10;91.20
7970;DHT22;4030;52.362;9.206;2022-12-07T08:43:58;6.30;91.00
7970;DHT22;4030;52.362;9.206;2022-12-07T08:46:28;6.10;90.70
7970;DHT22;4030;52.362;9.206;2022-12-07T08:49:14;6.10;90.70
7970;DHT22;4030;52.362;9.206;2022-12-07T08:51:43;6.00;91.30
7970;DHT22;4030;52.362;9.206;2022-12-07T08:54:11;6.30;91.50
7970;DHT22;4030;52.362;9.206;2022-12-07T08:56:39;6.10;91.50
7970;DHT22;4030;52.362;9.206;2022-12-07T08:59:05;6.60;91.60
7970;DHT22;4030;52.362;9.206;2022-12-07T09:01:31;6.20;92.20
7970;DHT22;4030;52.362;9.206;2022-12-07T09:03:57;6.20;92.70
7970;DHT22;4030;52.362;9.206;2022-12-07T09:08:52;6.20;93.00
7970;DHT22;4030;52.362;9.206;2022-12-07T09:11:19;6.50;93.00
7970;DHT22;4030;52.362;9.206;2022-12-07T09:21:03;6.50;93.00
7970;DHT22;4030;52.362;9.206;2022-12-07T09:23:30;6.50;93.00
7970;DHT22;4030;52.362;9.206;2022-12-07T09:26:02;6.70;92.90
7970;DHT22;4030;52.362;9.206;2022-12-07T09:28:30;6.70;92.80
7970;DHT22;4030;52.362;9.206;2022-12-07T09:30:56;6.60;92.70
7970;DHT22;4030;52.362;9.206;2022-12-07T09:35:49;7.20;92.70
7970;DHT22;4030;52.362;9.206;2022-12-07T09:38:16;7.40;93.00
7970;DHT22;4030;52.362;9.206;2022-12-07T09:40:42;8.50;91.90
7970;DHT22;4030;52.362;9.206;2022-12-07T09:43:19;10.10;86.70
7970;DHT22;4030;52.362;9.206;2022-12-07T09:45:48;12.20;78.80
7970;DHT22;4030;52.362;9.206;2022-12-07T09:48:30;12.60;74.50
7970;DHT22;4030;52.362;9.206;2022-12-07T09:50:59;11.60;74.10
7970;DHT22;4030;52.362;9.206;2022-12-07T09:53:28;10.80;75.40
7970;DHT22;4030;52.362;9.206;2022-12-07T09:55:56;10.20;77.70
7970;DHT22;4030;52.362;9.206;2022-12-07T09:58:24;10.40;79.60
7970;DHT22;4030;52.362;9.206;2022-12-07T10:00:57;9.80;81.80
7970;DHT22;4030;52.362;9.206;2022-12-07T10:03:27;9.50;82.80
7970;DHT22;4030;52.362;9.206;2022-12-07T10:05:54;9.30;84.20
7970;DHT22;4030;52.362;9.206;2022-12-07T10:10:51;9.70;84.30
7970;DHT22;4030;52.362;9.206;2022-12-07T10:13:21;10.10;82.50
7970;DHT22;4030;52.362;9.206;2022-12-07T10:15:58;10.00;81.90
7970;DHT22;4030;52.362;9.206;2022-12-07T10:18:40;9.60;82.80
7970;DHT22;4030;52.362;9.206;2022-12-07T10:21:26;9.50;83.60
7970;DHT22;4030;52.362;9.206;2022-12-07T10:26:35;8.80;85.10
7970;DHT22;4030;52.362;9.206;2022-12-07T10:29:15;8.80;85.70
7970;DHT22;4030;52.362;9.206;2022-12-07T10:31:57;8.50;86.30
7970;DHT22;4030;52.362;9.206;2022-12-07T10:42:22;10.40;82.00
7970;DHT22;4030;52.362;9.206;2022-12-07T10:44:50;12.10;77.70
7970;DHT22;4030;52.362;9.206;2022-12-07T10:47:48;11.80;76.00
7970;DHT22;4030;52.362;9.206;2022-12-07T10:50:29;11.40;77.00
7970;DHT22;4030;52.362;9.206;2022-12-07T11:01:50;12.30;72.80
7970;DHT22;4030;52.362;9.206;2022-12-07T11:07:55;11.40;76.00
7970;DHT22;4030;52.362;9.206;2022-12-07T11:10:31;10.70;77.50
7970;DHT22;4030;52.362;9.206;2022-12-07T11:13:29;10.50;79.00
7970;DHT22;4030;52.362;9.206;2022-12-07T11:18:59;9.70;81.60
7970;DHT22;4030;52.362;9.206;2022-12-07T11:22:20;10.30;81.20
7970;DHT22;4030;52.362;9.206;2022-12-07T11:25:20;9.80;82.40
7970;DHT22;4030;52.362;9.206;2022-12-07T11:28:00;9.60;83.00
7970;DHT22;4030;52.362;9.206;2022-12-07T11:30:52;9.30;83.70
7970;DHT22;4030;52.362;9.206;2022-12-07T11:33:38;9.10;84.20
7970;DHT22;4030;52.362;9.206;2022-12-07T11:39:37;8.90;85.10
7970;DHT22;4030;52.362;9.206;2022-12-07T11:42:26;11.70;86.70
7970;DHT22;4030;52.362;9.206;2022-12-07T11:45:13;9.30;85.40
7970;DHT22;4030;52.362;9.206;2022-12-07T11:50:30;9.40;85.40
7970;DHT22;4030;52.362;9.206;2022-12-07T11:55:39;9.00;85.40
7970;DHT22;4030;52.362;9.206;2022-12-07T12:03:49;8.80;86.00
7970;DHT22;4030;52.362;9.206;2022-12-07T12:11:59;9.40;84.80
7970;DHT22;4030;52.362;9.206;2022-12-07T12:15:18;9.90;84.90
7970;DHT22;4030;52.362;9.206;2022-12-07T12:26:00;10.50;81.50
7970;DHT22;4030;52.362;9.206;2022-12-07T12:28:38;10.40;81.00
7970;DHT22;4030;52.362;9.206;2022-12-07T12:31:15;10.40;81.00
7970;DHT22;4030;52.362;9.206;2022-12-07T12:33:49;10.40;81.50
7970;DHT22;4030;52.362;9.206;2022-12-07T12:47:04;9.80;83.60
7970;DHT22;4030;52.362;9.206;2022-12-07T12:50:15;9.70;83.70
7970;DHT22;4030;52.362;9.206;2022-12-07T12:52:50;9.70;84.20
7970;DHT22;4030;52.362;9.206;2022-12-07T12:55:20;9.80;84.30
7970;DHT22;4030;52.362;9.206;2022-12-07T13:00:46;9.20;84.10
7970;DHT22;4030;52.362;9.206;2022-12-07T13:03:26;9.70;84.60
7970;DHT22;4030;52.362;9.206;2022-12-07T13:06:20;9.20;84.20
7970;DHT22;4030;52.362;9.206;2022-12-07T13:08:59;9.40;84.20
7970;DHT22;4030;52.362;9.206;2022-12-07T13:17:03;9.50;85.10
7970;DHT22;4030;52.362;9.206;2022-12-07T13:27:55;9.00;85.10
7970;DHT22;4030;52.362;9.206;2022-12-07T13:30:25;8.70;85.20
7970;DHT22;4030;52.362;9.206;2022-12-07T13:32:53;9.00;85.50
7970;DHT22;4030;52.362;9.206;2022-12-07T13:35:36;8.60;85.30
7970;DHT22;4030;52.362;9.206;2022-12-07T13:38:13;8.80;85.70
7970;DHT22;4030;52.362;9.206;2022-12-07T13:41:20;8.70;85.30
7970;DHT22;4030;52.362;9.206;2022-12-07T13:44:09;8.50;85.40
7970;DHT22;4030;52.362;9.206;2022-12-07T13:47:05;8.60;85.60
7970;DHT22;4030;52.362;9.206;2022-12-07T13:49:56;8.40;86.10
7970;DHT22;4030;52.362;9.206;2022-12-07T13:52:27;8.40;86.10
7970;DHT22;4030;52.362;9.206;2022-12-07T13:55:13;8.80;86.70
7970;DHT22;4030;52.362;9.206;2022-12-07T13:57:40;8.30;86.00
7970;DHT22;4030;52.362;9.206;2022-12-07T14:00:16;8.80;86.60
7970;DHT22;4030;52.362;9.206;2022-12-07T14:03:02;8.80;86.60
7970;DHT22;4030;52.362;9.206;2022-12-07T14:05:37;8.20;86.00
7970;DHT22;4030;52.362;9.206;2022-12-07T14:10:34;8.20;86.00
7970;DHT22;4030;52.362;9.206;2022-12-07T14:13:03;8.40;86.20
7970;DHT22;4030;52.362;9.206;2022-12-07T14:15:32;8.60;86.50
7970;DHT22;4030;52.362;9.206;2022-12-07T14:18:00;8.20;86.10
7970;DHT22;4030;52.362;9.206;2022-12-07T14:20:37;8.40;86.00
7970;DHT22;4030;52.362;9.206;2022-12-07T14:23:04;8.00;86.10
7970;DHT22;4030;52.362;9.206;2022-12-07T14:25:48;8.60;86.60
7970;DHT22;4030;52.362;9.206;2022-12-07T14:28:29;8.20;85.80
7970;DHT22;4030;52.362;9.206;2022-12-07T14:30:57;8.20;86.20
7970;DHT22;4030;52.362;9.206;2022-12-07T14:33:24;8.40;86.20
7970;DHT22;4030;52.362;9.206;2022-12-07T14:35:50;8.10;86.10
7970;DHT22;4030;52.362;9.206;2022-12-07T14:38:20;8.10;86.10
7970;DHT22;4030;52.362;9.206;2022-12-07T14:43:16;8.00;85.90
7970;DHT22;4030;52.362;9.206;2022-12-07T14:48:13;8.10;86.20
7970;DHT22;4030;52.362;9.206;2022-12-07T14:50:49;8.20;85.80
7970;DHT22;4030;52.362;9.206;2022-12-07T14:53:19;8.00;86.10
7970;DHT22;4030;52.362;9.206;2022-12-07T14:55:48;8.00;86.10
7970;DHT22;4030;52.362;9.206;2022-12-07T14:58:15;8.30;86.20
7970;DHT22;4030;52.362;9.206;2022-12-07T15:00:41;7.70;85.60
7970;DHT22;4030;52.362;9.206;2022-12-07T15:05:34;7.90;85.60
7970;DHT22;4030;52.362;9.206;2022-12-07T15:10:29;7.60;85.90
7970;DHT22;4030;52.362;9.206;2022-12-07T15:13:01;7.50;85.90
7970;DHT22;4030;52.362;9.206;2022-12-07T15:15:48;7.60;86.10
7970;DHT22;4030;52.362;9.206;2022-12-07T15:18:15;7.80;86.30
7970;DHT22;4030;52.362;9.206;2022-12-07T15:20:40;7.30;85.80
7970;DHT22;4030;52.362;9.206;2022-12-07T15:23:07;7.50;85.90
7970;DHT22;4030;52.362;9.206;2022-12-07T15:25:32;7.40;85.90
7970;DHT22;4030;52.362;9.206;2022-12-07T15:27:58;7.70;86.20
7970;DHT22;4030;52.362;9.206;2022-12-07T15:32:51;7.40;85.70
7970;DHT22;4030;52.362;9.206;2022-12-07T15:35:18;7.70;86.40
7970;DHT22;4030;52.362;9.206;2022-12-07T15:40:11;7.40;85.70
7970;DHT22;4030;52.362;9.206;2022-12-07T15:42:37;7.40;86.20
7970;DHT22;4030;52.362;9.206;2022-12-07T15:45:05;7.10;85.70
7970;DHT22;4030;52.362;9.206;2022-12-07T15:47:34;7.30;86.20
7970;DHT22;4030;52.362;9.206;2022-12-07T15:50:03;7.30;85.70
7970;DHT22;4030;52.362;9.206;2022-12-07T15:52:30;7.10;86.00
7970;DHT22;4030;52.362;9.206;2022-12-07T15:54:56;7.20;86.00
7970;DHT22;4030;52.362;9.206;2022-12-07T15:57:22;7.50;86.30
7970;DHT22;4030;52.362;9.206;2022-12-07T15:59:48;7.20;86.20
7970;DHT22;4030;52.362;9.206;2022-12-07T16:02:14;7.10;86.00
7970;DHT22;4030;52.362;9.206;2022-12-07T16:04:39;7.20;85.90
7970;DHT22;4030;52.362;9.206;2022-12-07T16:14:23;7.30;86.10
7970;DHT22;4030;52.362;9.206;2022-12-07T16:24:08;6.90;85.70
7970;DHT22;4030;52.362;9.206;2022-12-07T16:26:35;6.70;85.80
7970;DHT22;4030;52.362;9.206;2022-12-07T16:29:01;7.10;86.30
7970;DHT22;4030;52.362;9.206;2022-12-07T16:31:27;7.10;86.30
7970;DHT22;4030;52.362;9.206;2022-12-07T16:33:55;6.90;86.10
7970;DHT22;4030;52.362;9.206;2022-12-07T16:38:50;6.80;85.70
7970;DHT22;4030;52.362;9.206;2022-12-07T16:41:16;6.90;86.00
7970;DHT22;4030;52.362;9.206;2022-12-07T16:43:43;7.20;86.50
7970;DHT22;4030;52.362;9.206;2022-12-07T16:46:09;6.70;86.00
7970;DHT22;4030;52.362;9.206;2022-12-07T16:48:37;7.00;86.20
7970;DHT22;4030;52.362;9.206;2022-12-07T16:51:09;6.90;86.20
7970;DHT22;4030;52.362;9.206;2022-12-07T16:53:36;6.60;85.90
7970;DHT22;4030;52.362;9.206;2022-12-07T16:56:03;7.00;86.20
7970;DHT22;4030;52.362;9.206;2022-12-07T16:58:30;6.80;86.00
7970;DHT22;4030;52.362;9.206;2022-12-07T17:08:15;6.70;85.70
7970;DHT22;4030;52.362;9.206;2022-12-07T17:10:43;6.60;85.60
7970;DHT22;4030;52.362;9.206;2022-12-07T17:13:10;6.50;85.60
7970;DHT22;4030;52.362;9.206;2022-12-07T17:18:22;6.70;86.30
7970;DHT22;4030;52.362;9.206;2022-12-07T17:20:47;6.30;85.80
7970;DHT22;4030;52.362;9.206;2022-12-07T17:45:12;6.40;85.60
7970;DHT22;4030;52.362;9.206;2022-12-07T17:47:39;6.70;86.40
7970;DHT22;4030;52.362;9.206;2022-12-07T17:50:05;6.70;86.40
7970;DHT22;4030;52.362;9.206;2022-12-07T17:52:33;6.30;85.80
7970;DHT22;4030;52.362;9.206;2022-12-07T17:55:17;6.60;86.20
7970;DHT22;4030;52.362;9.206;2022-12-07T17:57:43;6.80;86.50
7970;DHT22;4030;52.362;9.206;2022-12-07T18:00:09;6.80;86.60
7970;DHT22;4030;52.362;9.206;2022-12-07T18:05:03;6.30;85.90
7970;DHT22;4030;52.362;9.206;2022-12-07T18:07:28;6.30;86.00
7970;DHT22;4030;52.362;9.206;2022-12-07T18:19:41;6.40;86.20
7970;DHT22;4030;52.362;9.206;2022-12-07T18:24:33;6.50;86.20
7970;DHT22;4030;52.362;9.206;2022-12-07T18:34:18;6.40;85.70
7970;DHT22;4030;52.362;9.206;2022-12-07T18:36:45;6.70;86.60
7970;DHT22;4030;52.362;9.206;2022-12-07T18:39:13;6.40;86.30
7970;DHT22;4030;52.362;9.206;2022-12-07T18:44:06;6.50;86.30
7970;DHT22;4030;52.362;9.206;2022-12-07T18:46:32;6.60;86.40
7970;DHT22;4030;52.362;9.206;2022-12-07T18:48:58;6.30;86.40
7970;DHT22;4030;52.362;9.206;2022-12-07T18:51:25;6.30;86.30
7970;DHT22;4030;52.362;9.206;2022-12-07T18:53:55;6.30;86.30
7970;DHT22;4030;52.362;9.206;2022-12-07T18:56:23;6.20;86.10
7970;DHT22;4030;52.362;9.206;2022-12-07T18:58:55;6.30;85.70
7970;DHT22;4030;52.362;9.206;2022-12-07T19:01:46;6.40;85.90
7970;DHT22;4030;52.362;9.206;2022-12-07T19:04:13;6.50;86.60
7970;DHT22;4030;52.362;9.206;2022-12-07T19:06:47;6.70;86.80
7970;DHT22;4030;52.362;9.206;2022-12-07T19:16:50;6.60;86.80
7970;DHT22;4030;52.362;9.206;2022-12-07T19:19:18;6.70;86.90
7970;DHT22;4030;52.362;9.206;2022-12-07T19:21:45;6.60;86.80
7970;DHT22;4030;52.362;9.206;2022-12-07T19:24:11;6.40;86.60
7970;DHT22;4030;52.362;9.206;2022-12-07T19:26:37;6.30;86.30
7970;DHT22;4030;52.362;9.206;2022-12-07T19:29:03;6.50;86.70
7970;DHT22;4030;52.362;9.206;2022-12-07T19:31:29;6.00;86.10
7970;DHT22;4030;52.362;9.206;2022-12-07T19:36:21;6.40;86.50
7970;DHT22;4030;52.362;9.206;2022-12-07T19:41:14;6.10;86.20
7970;DHT22;4030;52.362;9.206;2022-12-07T19:43:59;6.30;86.40
7970;DHT22;4030;52.362;9.206;2022-12-07T19:46:26;6.10;86.30
7970;DHT22;4030;52.362;9.206;2022-12-07T19:48:54;6.20;86.50
7970;DHT22;4030;52.362;9.206;2022-12-07T19:51:21;6.60;86.90
7970;DHT22;4030;52.362;9.206;2022-12-07T19:53:46;6.20;86.40
7970;DHT22;4030;52.362;9.206;2022-12-07T19:56:16;6.00;86.30
7970;DHT22;4030;52.362;9.206;2022-12-07T20:03:35;6.30;86.00
7970;DHT22;4030;52.362;9.206;2022-12-07T20:06:07;6.30;86.20
7970;DHT22;4030;52.362;9.206;2022-12-07T20:08:34;6.40;86.60
7970;DHT22;4030;52.362;9.206;2022-12-07T20:26:01;6.20;86.20
7970;DHT22;4030;52.362;9.206;2022-12-07T20:33:20;6.30;86.30
7970;DHT22;4030;52.362;9.206;2022-12-07T20:35:46;6.10;86.10
7970;DHT22;4030;52.362;9.206;2022-12-07T20:38:13;6.40;87.00
7970;DHT22;4030;52.362;9.206;2022-12-07T20:40:45;6.50;87.10
7970;DHT22;4030;52.362;9.206;2022-12-07T20:45:45;6.20;86.30
7970;DHT22;4030;52.362;9.206;2022-12-07T20:48:13;6.40;87.00
7970;DHT22;4030;52.362;9.206;2022-12-07T20:50:39;6.10;86.50
7970;DHT22;4030;52.362;9.206;2022-12-07T20:53:05;6.20;86.40
7970;DHT22;4030;52.362;9.206;2022-12-07T21:02:49;6.50;86.80
7970;DHT22;4030;52.362;9.206;2022-12-07T21:07:43;6.50;87.30
7970;DHT22;4030;52.362;9.206;2022-12-07T21:12:36;6.00;86.80
7970;DHT22;4030;52.362;9.206;2022-12-07T21:15:04;6.20;86.40
7970;DHT22;4030;52.362;9.206;2022-12-07T21:17:30;6.00;86.80
7970;DHT22;4030;52.362;9.206;2022-12-07T21:19:56;6.00;86.80
7970;DHT22;4030;52.362;9.206;2022-12-07T21:22:22;6.00;86.50
7970;DHT22;4030;52.362;9.206;2022-12-07T21:34:33;5.90;86.60
7970;DHT22;4030;52.362;9.206;2022-12-07T21:36:59;6.30;87.00
7970;DHT22;4030;52.362;9.206;2022-12-07T21:39:25;5.90;86.60
7970;DHT22;4030;52.362;9.206;2022-12-07T21:41:51;6.20;87.00
7970;DHT22;4030;52.362;9.206;2022-12-07T21:44:16;6.20;87.00
7970;DHT22;4030;52.362;9.206;2022-12-07T21:46:42;6.40;87.10
7970;DHT22;4030;52.362;9.206;2022-12-07T21:49:13;6.20;86.40
7970;DHT22;4030;52.362;9.206;2022-12-07T21:51:41;6.20;87.10
7970;DHT22;4030;52.362;9.206;2022-12-07T21:54:08;6.20;87.10
7970;DHT22;4030;52.362;9.206;2022-12-07T21:56:38;6.20;87.10
7970;DHT22;4030;52.362;9.206;2022-12-07T21:59:10;6.20;87.10
7970;DHT22;4030;52.362;9.206;2022-12-07T22:01:39;6.10;86.50
7970;DHT22;4030;52.362;9.206;2022-12-07T22:04:16;6.30;87.30
7970;DHT22;4030;52.362;9.206;2022-12-07T22:14:03;6.10;86.60
7970;DHT22;4030;52.362;9.206;2022-12-07T22:19:14;6.30;87.40
7970;DHT22;4030;52.362;9.206;2022-12-07T22:24:06;6.00;87.20
7970;DHT22;4030;52.362;9.206;2022-12-07T22:26:33;6.40;87.70
7970;DHT22;4030;52.362;9.206;2022-12-07T22:29:00;6.50;87.70
7970;DHT22;4030;52.362;9.206;2022-12-07T22:31:26;6.30;87.60
7970;DHT22;4030;52.362;9.206;2022-12-07T22:33:52;6.20;87.30
7970;DHT22;4030;52.362;9.206;2022-12-07T22:36:18;6.10;87.30
7970;DHT22;4030;52.362;9.206;2022-12-07T22:38:45;5.90;87.20
7970;DHT22;4030;52.362;9.206;2022-12-07T22:41:15;6.30;87.70
7970;DHT22;4030;52.362;9.206;2022-12-07T22:43:43;6.10;87.50
7970;DHT22;4030;52.362;9.206;2022-12-07T22:46:08;6.00;87.40
7970;DHT22;4030;52.362;9.206;2022-12-07T22:51:00;6.10;87.60
7970;DHT22;4030;52.362;9.206;2022-12-07T22:53:26;5.90;87.40
7970;DHT22;4030;52.362;9.206;2022-12-07T22:55:52;6.20;87.50
7970;DHT22;4030;52.362;9.206;2022-12-07T22:58:18;6.20;87.10
7970;DHT22;4030;52.362;9.206;2022-12-07T23:03:10;6.30;87.30
7970;DHT22;4030;52.362;9.206;2022-12-07T23:05:43;6.20;87.20
7970;DHT22;4030;52.362;9.206;2022-12-07T23:08:10;6.40;88.00
7970;DHT22;4030;52.362;9.206;2022-12-07T23:10:40;6.00;87.60
7970;DHT22;4030;52.362;9.206;2022-12-07T23:15:52;6.40;88.00
7970;DHT22;4030;52.362;9.206;2022-12-07T23:23:10;5.80;87.40
7970;DHT22;4030;52.362;9.206;2022-12-07T23:25:36;6.00;87.60
7970;DHT22;4030;52.362;9.206;2022-12-07T23:28:01;6.20;87.80
7970;DHT22;4030;52.362;9.206;2022-12-07T23:30:27;6.00;87.60
7970;DHT22;4030;52.362;9.206;2022-12-07T23:45:03;6.10;87.20
7970;DHT22;4030;52.362;9.206;2022-12-07T23:59:39;6.30;87.60
